createdAt,value
2017-11-05T00:00:39.814Z,90.51
2017-11-05T00:03:06.205Z,90.22
2017-11-05T00:05:32.684Z,90.50
2017-11-05T00:07:59.118Z,91.19
2017-11-05T00:10:25.553Z,91.00
2017-11-05T00:12:51.988Z,91.04
2017-11-05T00:15:18.422Z,91.06
2017-11-05T00:17:44.863Z,90.67
2017-11-05T00:20:11.315Z,90.16
2017-11-05T00:22:38.460Z,90.06
2017-11-05T00:25:04.984Z,89.37
2017-11-05T00:27:31.418Z,89.72
2017-11-05T00:29:57.960Z,90.18
2017-11-05T00:32:24.372Z,90.43
2017-11-05T00:34:50.816Z,90.41
2017-11-05T00:37:17.286Z,90.70
2017-11-05T00:39:44.498Z,90.72
2017-11-05T00:42:10.945Z,91.24
2017-11-05T00:44:37.474Z,91.02
2017-11-05T00:47:03.935Z,90.92
2017-11-05T00:49:30.315Z,90.69
2017-11-05T00:51:56.783Z,90.50
2017-11-05T00:54:23.222Z,90.31
2017-11-05T00:56:50.435Z,89.89
2017-11-05T00:59:16.933Z,89.61
2017-11-05T01:01:43.344Z,89.64
2017-11-05T01:04:09.733Z,89.38
2017-11-05T01:06:36.110Z,89.50
2017-11-05T01:09:02.553Z,89.86
2017-11-05T01:11:29.091Z,89.42
2017-11-05T01:13:56.234Z,89.35
2017-11-05T01:16:22.669Z,89.36
2017-11-05T01:18:49.214Z,89.37
2017-11-05T01:21:15.752Z,89.41
2017-11-05T01:23:42.289Z,89.57
2017-11-05T01:26:08.826Z,89.87
2017-11-05T01:28:35.243Z,90.14
2017-11-05T01:31:02.487Z,90.61
2017-11-05T01:33:28.940Z,90.97
2017-11-05T01:35:55.374Z,90.49
2017-11-05T01:38:21.736Z,90.07
2017-11-05T01:40:48.183Z,89.86
2017-11-05T01:43:14.518Z,89.56
2017-11-05T01:45:40.883Z,89.51
2017-11-05T01:48:08.171Z,89.41
2017-11-05T01:50:34.597Z,89.63
2017-11-05T01:53:01.041Z,89.46
2017-11-05T01:55:27.429Z,89.54
2017-11-05T01:57:53.815Z,89.88
2017-11-05T02:00:20.250Z,90.31
2017-11-05T02:02:46.668Z,90.68
2017-11-05T02:05:13.912Z,90.90
2017-11-05T02:07:40.364Z,91.04
2017-11-05T02:10:06.902Z,91.11
2017-11-05T02:12:33.328Z,91.22
2017-11-05T02:14:59.763Z,91.29
2017-11-05T02:17:26.096Z,91.24
2017-11-05T02:19:52.530Z,91.36
2017-11-05T02:22:19.666Z,91.42
2017-11-05T02:24:46.119Z,91.40
2017-11-05T02:27:12.551Z,91.29
2017-11-05T02:29:38.986Z,91.33
2017-11-05T02:32:05.421Z,91.33
2017-11-05T02:34:31.864Z,91.32
2017-11-05T02:36:58.291Z,91.31
2017-11-05T02:39:25.552Z,91.26
2017-11-05T02:41:51.987Z,91.12
2017-11-05T02:44:18.414Z,90.08
2017-11-05T02:46:44.857Z,89.30
2017-11-05T02:49:11.302Z,89.28
2017-11-05T02:51:37.725Z,88.67
2017-11-05T02:54:04.172Z,88.30
2017-11-05T02:56:31.405Z,88.32
2017-11-05T02:58:57.841Z,87.86
2017-11-05T03:01:24.216Z,88.38
2017-11-05T03:03:50.709Z,88.34
2017-11-05T03:06:17.152Z,88.70
2017-11-05T03:08:43.579Z,88.63
2017-11-05T03:11:10.022Z,88.09
2017-11-05T03:13:37.173Z,87.61
2017-11-05T03:16:03.600Z,87.24
2017-11-05T03:18:29.932Z,86.81
2017-11-05T03:20:56.367Z,86.25
2017-11-05T03:23:22.695Z,86.08
2017-11-05T03:25:49.031Z,85.78
2017-11-05T03:28:15.398Z,85.69
2017-11-05T03:30:42.588Z,85.73
2017-11-05T03:33:09.038Z,85.97
2017-11-05T03:35:35.456Z,86.25
2017-11-05T03:38:01.899Z,86.61
2017-11-05T03:40:28.359Z,86.86
2017-11-05T03:42:54.690Z,86.69
2017-11-05T03:45:21.131Z,86.43
2017-11-05T03:47:48.296Z,86.13
2017-11-05T03:50:14.709Z,85.92
2017-11-05T03:52:41.152Z,85.61
2017-11-05T03:55:07.568Z,85.94
2017-11-05T03:57:34.012Z,86.31
2017-11-05T04:00:00.447Z,86.86
2017-11-05T04:02:26.881Z,87.51
2017-11-05T04:04:54.141Z,87.43
2017-11-05T04:07:20.674Z,87.44
2017-11-05T04:09:47.119Z,87.90
2017-11-05T04:12:13.554Z,88.22
2017-11-05T04:14:39.988Z,88.46
2017-11-05T04:17:06.347Z,88.81
2017-11-05T04:19:32.855Z,88.96
2017-11-05T04:22:00.008Z,89.32
2017-11-05T04:24:26.439Z,89.67
2017-11-05T04:26:52.870Z,89.95
2017-11-05T04:29:19.305Z,90.27
2017-11-05T04:31:45.740Z,90.33
2017-11-05T04:34:12.201Z,90.11
2017-11-05T04:36:38.617Z,90.10
2017-11-05T04:39:05.870Z,89.91
2017-11-05T04:41:32.268Z,89.33
2017-11-05T04:43:58.742Z,88.82
2017-11-05T04:46:25.168Z,88.60
2017-11-05T04:48:51.530Z,88.24
2017-11-05T04:51:17.931Z,88.16
2017-11-05T04:53:44.387Z,88.43
2017-11-05T04:56:11.619Z,88.99
2017-11-05T04:58:38.054Z,89.29
2017-11-05T05:01:04.513Z,89.39
2017-11-05T05:03:30.930Z,89.20
2017-11-05T05:05:57.290Z,89.20
2017-11-05T05:08:23.684Z,89.07
2017-11-05T05:10:50.130Z,88.89
2017-11-05T05:13:17.277Z,88.89
2017-11-05T05:15:43.610Z,88.89
2017-11-05T05:18:10.046Z,88.91
2017-11-05T05:20:36.375Z,88.95
2017-11-05T05:23:02.846Z,88.95
2017-11-05T05:25:29.246Z,89.10
2017-11-05T05:27:55.680Z,89.05
2017-11-05T05:30:22.934Z,88.78
2017-11-05T05:32:49.301Z,88.55
2017-11-05T05:35:15.838Z,88.28
2017-11-05T05:37:42.212Z,88.41
2017-11-05T05:40:08.653Z,88.38
2017-11-05T05:42:35.103Z,88.37
2017-11-05T05:45:01.515Z,88.29
2017-11-05T05:47:32.519Z,88.11
2017-11-05T05:49:58.924Z,87.76
2017-11-05T05:52:25.352Z,87.67
2017-11-05T05:54:51.785Z,87.52
2017-11-05T05:57:18.946Z,87.27
2017-11-05T05:59:45.380Z,87.62
2017-11-05T06:02:11.750Z,87.58
2017-11-05T06:04:38.249Z,87.39
2017-11-05T06:07:04.676Z,87.25
2017-11-05T06:09:31.082Z,87.08
2017-11-05T06:11:57.545Z,87.04
2017-11-05T06:14:24.696Z,86.76
2017-11-05T06:16:51.154Z,86.44
2017-11-05T06:19:17.498Z,86.23
2017-11-05T06:21:43.893Z,85.54
2017-11-05T06:24:10.341Z,85.28
2017-11-05T06:26:36.760Z,85.20
2017-11-05T06:29:03.205Z,84.89
2017-11-05T06:31:30.436Z,84.61
2017-11-05T06:33:56.887Z,84.15
2017-11-05T06:36:23.324Z,83.97
2017-11-05T06:38:49.693Z,83.53
2017-11-05T06:41:16.092Z,82.98
2017-11-05T06:43:42.638Z,82.42
2017-11-05T06:46:09.072Z,81.92
2017-11-05T06:48:36.224Z,81.70
2017-11-05T06:51:02.650Z,81.43
2017-11-05T06:53:29.086Z,80.34
2017-11-05T06:55:55.525Z,80.25
2017-11-05T06:58:21.965Z,79.87
2017-11-05T07:00:48.390Z,79.76
2017-11-05T07:03:14.824Z,78.99
2017-11-05T07:05:42.084Z,78.75
2017-11-05T07:08:08.535Z,78.42
2017-11-05T07:10:34.955Z,78.00
2017-11-05T07:13:01.382Z,77.80
2017-11-05T07:15:27.817Z,77.76
2017-11-05T07:17:54.250Z,77.18
2017-11-05T07:20:20.685Z,77.11
2017-11-05T07:22:47.846Z,76.47
2017-11-05T07:25:14.281Z,76.20
2017-11-05T07:27:40.707Z,75.85
2017-11-05T07:30:07.142Z,76.01
2017-11-05T07:32:33.586Z,75.81
2017-11-05T07:35:00.010Z,76.03
2017-11-05T07:37:26.558Z,75.50
2017-11-05T07:39:53.605Z,75.10
2017-11-05T07:42:20.039Z,75.07
2017-11-05T07:44:46.481Z,74.68
2017-11-05T07:47:12.901Z,74.37
2017-11-05T07:49:39.354Z,74.23
2017-11-05T07:52:05.770Z,73.72
2017-11-05T07:54:32.315Z,73.59
2017-11-05T07:56:59.394Z,73.64
2017-11-05T07:59:25.790Z,73.33
2017-11-05T08:01:52.123Z,74.07
2017-11-05T08:04:18.526Z,74.09
2017-11-05T08:06:45.000Z,73.54
2017-11-05T08:09:11.362Z,73.26
2017-11-05T08:11:37.698Z,72.99
2017-11-05T08:14:04.910Z,71.96
2017-11-05T08:16:31.345Z,72.08
2017-11-05T08:18:57.789Z,71.90
2017-11-05T08:21:24.223Z,71.88
2017-11-05T08:23:50.587Z,71.78
2017-11-05T08:26:16.925Z,71.62
2017-11-05T08:28:43.390Z,70.79
2017-11-05T08:31:10.575Z,71.36
2017-11-05T08:33:37.002Z,71.52
2017-11-05T08:36:03.407Z,71.03
2017-11-05T08:38:29.879Z,71.19
2017-11-05T08:40:56.305Z,71.31
2017-11-05T08:43:22.677Z,71.01
2017-11-05T08:45:49.036Z,70.45
2017-11-05T08:48:16.206Z,70.35
2017-11-05T08:50:42.659Z,70.33
2017-11-05T08:53:09.093Z,70.02
2017-11-05T08:55:35.407Z,69.85
2017-11-05T08:58:01.861Z,69.42
2017-11-05T09:00:28.332Z,68.65
2017-11-05T09:02:54.860Z,68.33
2017-11-05T09:05:21.993Z,67.90
2017-11-05T09:07:48.419Z,67.48
2017-11-05T09:10:14.862Z,66.48
2017-11-05T09:12:41.293Z,66.11
2017-11-05T09:15:07.723Z,65.44
2017-11-05T09:17:34.054Z,65.51
2017-11-05T09:20:00.492Z,64.86
2017-11-05T09:22:27.652Z,64.19
2017-11-05T09:24:54.077Z,63.54
2017-11-05T09:27:20.541Z,59.71
2017-11-05T09:29:46.946Z,58.80
2017-11-05T09:32:13.266Z,57.48
2017-11-05T09:34:39.713Z,56.48
2017-11-05T09:37:06.167Z,54.87
2017-11-05T09:39:33.302Z,54.21
2017-11-05T09:41:59.744Z,54.48
2017-11-05T09:44:26.067Z,54.65
2017-11-05T09:46:52.512Z,53.33
2017-11-05T09:49:18.936Z,52.80
2017-11-05T09:51:45.379Z,52.62
2017-11-05T09:54:11.805Z,53.18
2017-11-05T09:56:39.068Z,53.60
2017-11-05T09:59:05.430Z,51.58
2017-11-05T10:01:32.049Z,51.21
2017-11-05T10:03:58.393Z,49.67
2017-11-05T10:06:24.884Z,48.83
2017-11-05T10:08:51.341Z,47.04
2017-11-05T10:11:17.715Z,46.75
2017-11-05T10:13:44.931Z,45.35
2017-11-05T10:16:11.367Z,46.35
2017-11-05T10:18:37.791Z,46.07
2017-11-05T10:21:04.122Z,45.25
2017-11-05T10:23:30.565Z,43.59
2017-11-05T10:25:57.101Z,43.95
2017-11-05T10:28:23.528Z,43.55
2017-11-05T10:30:50.687Z,43.67
2017-11-05T10:33:17.115Z,43.36
2017-11-05T10:35:43.557Z,43.89
2017-11-05T10:38:09.994Z,44.67
2017-11-05T10:40:36.351Z,45.99
2017-11-05T10:43:02.853Z,46.12
2017-11-05T10:45:29.287Z,47.00
2017-11-05T10:47:56.440Z,46.55
2017-11-05T10:50:22.885Z,46.17
2017-11-05T10:52:49.310Z,45.91
2017-11-05T10:55:15.746Z,45.26
2017-11-05T10:57:42.090Z,45.06
2017-11-05T11:00:08.514Z,43.84
2017-11-05T11:02:34.957Z,42.96
2017-11-05T11:05:02.097Z,41.83
2017-11-05T11:07:28.598Z,41.84
2017-11-05T11:09:55.095Z,41.50
2017-11-05T11:12:21.614Z,41.81
2017-11-05T11:14:48.043Z,41.18
2017-11-05T11:17:14.438Z,40.53
2017-11-05T11:19:40.917Z,39.91
2017-11-05T11:22:08.080Z,39.47
2017-11-05T11:24:34.495Z,39.41
2017-11-05T11:27:00.930Z,38.76
2017-11-05T11:29:27.331Z,38.25
2017-11-05T11:31:53.674Z,37.54
2017-11-05T11:34:20.140Z,37.48
2017-11-05T11:36:46.567Z,37.55
2017-11-05T11:39:13.717Z,37.49
2017-11-05T11:41:40.166Z,38.74
2017-11-05T11:44:06.595Z,38.29
2017-11-05T11:46:33.021Z,37.43
2017-11-05T11:48:59.455Z,36.78
2017-11-05T11:51:25.866Z,36.64
2017-11-05T11:53:52.308Z,35.20
2017-11-05T11:56:19.411Z,33.77
2017-11-05T11:58:45.920Z,32.83
2017-11-05T12:01:12.445Z,32.96
2017-11-05T12:03:38.884Z,33.29
2017-11-05T12:06:05.222Z,33.32
2017-11-05T12:08:31.675Z,33.48
2017-11-05T12:10:58.085Z,33.29
2017-11-05T12:13:25.237Z,31.77
2017-11-05T12:15:51.670Z,31.14
2017-11-05T12:18:18.105Z,31.24
2017-11-05T12:20:44.540Z,30.60
2017-11-05T12:23:10.983Z,30.71
2017-11-05T12:25:37.413Z,30.18
2017-11-05T12:28:03.750Z,29.97
2017-11-05T12:30:31.004Z,28.92
2017-11-05T12:32:57.431Z,29.88
2017-11-05T12:35:23.865Z,30.82
2017-11-05T12:37:50.301Z,31.05
2017-11-05T12:40:16.734Z,29.79
2017-11-05T12:42:43.178Z,29.14
2017-11-05T12:45:09.604Z,28.56
2017-11-05T12:47:36.869Z,28.19
2017-11-05T12:50:03.314Z,28.07
2017-11-05T12:52:29.727Z,27.93
2017-11-05T12:54:56.170Z,27.71
2017-11-05T12:57:22.604Z,27.64
2017-11-05T12:59:49.039Z,27.42
2017-11-05T13:02:15.399Z,26.31
2017-11-05T13:04:42.625Z,26.78
2017-11-05T13:07:09.059Z,26.66
2017-11-05T13:09:35.428Z,26.66
2017-11-05T13:12:01.908Z,26.46
2017-11-05T13:14:28.356Z,25.97
2017-11-05T13:16:54.793Z,25.86
2017-11-05T13:19:21.124Z,26.21
2017-11-05T13:21:48.376Z,25.99
2017-11-05T13:24:14.915Z,26.02
2017-11-05T13:26:41.246Z,26.47
2017-11-05T13:29:07.645Z,26.90
2017-11-05T13:31:34.051Z,26.89
2017-11-05T13:34:00.447Z,27.79
2017-11-05T13:36:26.882Z,27.80
2017-11-05T13:38:53.972Z,27.01
2017-11-05T13:41:20.367Z,27.42
2017-11-05T13:43:46.807Z,26.97
2017-11-05T13:46:13.243Z,27.17
2017-11-05T13:48:39.679Z,27.58
2017-11-05T13:51:06.105Z,28.23
2017-11-05T13:53:32.540Z,28.40
2017-11-05T13:55:59.692Z,28.20
2017-11-05T13:58:26.125Z,27.55
2017-11-05T14:00:52.678Z,28.12
2017-11-05T14:03:19.086Z,28.70
2017-11-05T14:05:45.430Z,28.77
2017-11-05T14:08:11.864Z,28.89
2017-11-05T14:10:38.313Z,29.29
2017-11-05T14:13:05.348Z,29.59
2017-11-05T14:15:31.782Z,29.42
2017-11-05T14:17:58.114Z,29.97
2017-11-05T14:20:24.557Z,30.32
2017-11-05T14:22:51.086Z,30.29
2017-11-05T14:25:17.726Z,30.82
2017-11-05T14:27:44.161Z,31.05
2017-11-05T14:30:11.424Z,31.54
2017-11-05T14:32:37.851Z,31.34
2017-11-05T14:35:04.283Z,31.54
2017-11-05T14:37:30.720Z,31.81
2017-11-05T14:39:57.154Z,32.45
2017-11-05T14:42:23.590Z,33.30
2017-11-05T14:44:50.031Z,34.92
2017-11-05T14:47:17.335Z,35.64
2017-11-05T14:49:43.822Z,35.72
2017-11-05T14:52:10.251Z,37.42
2017-11-05T14:54:36.685Z,38.80
2017-11-05T14:57:03.119Z,40.80
2017-11-05T14:59:29.571Z,42.02
2017-11-05T15:01:55.986Z,43.13
2017-11-05T15:04:23.147Z,44.18
2017-11-05T15:06:49.574Z,45.36
2017-11-05T15:09:15.904Z,46.01
2017-11-05T15:11:42.308Z,46.79
2017-11-05T15:14:08.796Z,47.80
2017-11-05T15:16:35.209Z,48.47
2017-11-05T15:19:01.648Z,49.25
2017-11-05T15:21:28.901Z,49.75
2017-11-05T15:23:55.334Z,50.38
2017-11-05T15:26:21.768Z,51.02
2017-11-05T15:28:48.211Z,51.78
2017-11-05T15:31:14.635Z,52.11
2017-11-05T15:33:41.078Z,53.02
2017-11-05T15:36:07.448Z,53.08
2017-11-05T15:38:34.661Z,53.08
2017-11-05T15:41:01.102Z,53.48
2017-11-05T15:43:27.538Z,54.66
2017-11-05T15:45:53.971Z,54.95
2017-11-05T15:48:20.383Z,56.12
2017-11-05T15:50:46.824Z,56.59
2017-11-05T15:53:13.268Z,57.19
2017-11-05T15:55:40.402Z,57.86
2017-11-05T15:58:06.844Z,57.94
2017-11-05T16:00:33.286Z,58.36
2017-11-05T16:02:59.729Z,59.23
2017-11-05T16:05:26.158Z,59.17
2017-11-05T16:07:52.591Z,59.18
2017-11-05T16:10:19.031Z,59.30
2017-11-05T16:12:46.174Z,59.40
2017-11-05T16:15:12.619Z,59.43
2017-11-05T16:17:39.046Z,59.66
2017-11-05T16:20:05.481Z,59.92
2017-11-05T16:22:31.922Z,60.85
2017-11-05T16:24:58.350Z,61.49
2017-11-05T16:27:24.904Z,61.25
2017-11-05T16:29:51.870Z,61.99
2017-11-05T16:32:18.338Z,61.94
2017-11-05T16:34:44.764Z,62.13
2017-11-05T16:37:11.249Z,62.83
2017-11-05T16:39:37.674Z,63.26
2017-11-05T16:42:04.108Z,63.98
2017-11-05T16:44:30.522Z,64.09
2017-11-05T16:46:57.806Z,64.41
2017-11-05T16:49:24.159Z,65.42
2017-11-05T16:51:50.650Z,65.72
2017-11-05T16:54:17.222Z,65.87
2017-11-05T16:56:43.647Z,66.06
2017-11-05T16:59:10.084Z,66.30
2017-11-05T17:01:36.509Z,66.76
2017-11-05T17:04:03.774Z,67.13
2017-11-05T17:06:30.205Z,67.45
2017-11-05T17:08:56.530Z,67.53
2017-11-05T17:11:22.979Z,67.39
2017-11-05T17:13:49.399Z,67.19
2017-11-05T17:16:15.842Z,66.99
2017-11-05T17:18:42.206Z,67.40
2017-11-05T17:21:09.365Z,67.93
2017-11-05T17:23:35.827Z,67.98
2017-11-05T17:26:02.187Z,68.19
2017-11-05T17:28:28.621Z,68.38
2017-11-05T17:30:55.065Z,68.30
2017-11-05T17:33:21.457Z,68.33
2017-11-05T17:35:47.927Z,68.48
2017-11-05T17:38:15.085Z,69.25
2017-11-05T17:40:41.448Z,69.90
2017-11-05T17:43:07.787Z,70.37
2017-11-05T17:45:34.157Z,70.62
2017-11-05T17:48:00.579Z,70.80
2017-11-05T17:50:27.045Z,70.64
2017-11-05T17:52:53.505Z,70.42
2017-11-05T17:55:20.742Z,70.13
2017-11-05T17:57:47.106Z,70.13
2017-11-05T18:00:13.602Z,70.15
2017-11-05T18:02:40.047Z,70.11
2017-11-05T18:05:06.480Z,70.53
2017-11-05T18:07:32.864Z,71.16
2017-11-05T18:09:59.350Z,71.92
2017-11-05T18:12:26.502Z,72.29
2017-11-05T18:14:52.862Z,72.28
2017-11-05T18:17:19.260Z,71.99
2017-11-05T18:19:45.703Z,72.01
2017-11-05T18:22:12.155Z,72.00
2017-11-05T18:24:38.693Z,71.98
2017-11-05T18:27:05.212Z,71.87
2017-11-05T18:29:32.341Z,71.61
2017-11-05T18:31:58.892Z,71.31
2017-11-05T18:34:25.328Z,71.66
2017-11-05T18:36:51.780Z,72.07
2017-11-05T18:39:18.196Z,72.63
2017-11-05T18:41:44.632Z,72.72
2017-11-05T18:44:11.075Z,72.61
2017-11-05T18:46:38.225Z,72.77
2017-11-05T18:49:04.660Z,73.26
2017-11-05T18:51:31.095Z,73.15
2017-11-05T18:53:57.455Z,72.92
2017-11-05T18:56:23.853Z,72.65
2017-11-05T18:58:50.248Z,72.83
2017-11-05T19:01:16.722Z,73.65
2017-11-05T19:03:43.882Z,74.25
2017-11-05T19:06:10.315Z,74.34
2017-11-05T19:08:36.743Z,74.15
2017-11-05T19:11:03.189Z,74.11
2017-11-05T19:13:29.614Z,74.69
2017-11-05T19:15:56.046Z,74.49
2017-11-05T19:18:22.482Z,73.94
2017-11-05T19:20:49.633Z,74.01
2017-11-05T19:23:16.011Z,74.06
2017-11-05T19:25:42.400Z,74.05
2017-11-05T19:28:08.946Z,74.07
2017-11-05T19:30:35.380Z,74.52
2017-11-05T19:33:01.920Z,74.64
2017-11-05T19:35:28.352Z,74.87
2017-11-05T19:37:55.462Z,74.83
2017-11-05T19:40:21.869Z,75.11
2017-11-05T19:42:48.262Z,75.09
2017-11-05T19:45:14.697Z,75.26
2017-11-05T19:47:41.134Z,75.79
2017-11-05T19:50:07.533Z,76.16
2017-11-05T19:52:33.897Z,76.25
2017-11-05T19:55:01.161Z,75.94
2017-11-05T19:57:27.588Z,75.85
2017-11-05T19:59:54.029Z,76.08
2017-11-05T20:02:20.469Z,76.02
2017-11-05T20:04:46.891Z,76.18
2017-11-05T20:07:13.325Z,75.61
2017-11-05T20:09:39.657Z,75.32
2017-11-05T20:12:06.916Z,75.31
2017-11-05T20:14:33.359Z,75.32
2017-11-05T20:16:59.811Z,75.71
2017-11-05T20:19:26.164Z,76.24
2017-11-05T20:21:52.549Z,77.11
2017-11-05T20:24:18.921Z,77.80
2017-11-05T20:26:45.316Z,77.72
2017-11-05T20:29:12.569Z,77.25
2017-11-05T20:31:39.010Z,76.93
2017-11-05T20:34:05.438Z,76.43
2017-11-05T20:36:31.884Z,76.34
2017-11-05T20:38:58.317Z,76.85
2017-11-05T20:41:24.746Z,77.44
2017-11-05T20:43:51.179Z,77.53
2017-11-05T20:46:18.328Z,77.54
2017-11-05T20:48:44.783Z,77.70
2017-11-05T20:51:11.198Z,77.44
2017-11-05T20:53:37.633Z,76.91
2017-11-05T20:56:04.067Z,76.61
2017-11-05T20:58:30.522Z,76.54
2017-11-05T21:00:56.937Z,76.98
2017-11-05T21:03:24.089Z,77.21
2017-11-05T21:05:50.494Z,77.47
2017-11-05T21:08:16.964Z,77.40
2017-11-05T21:10:43.375Z,77.23
2017-11-05T21:13:09.829Z,77.03
2017-11-05T21:15:36.270Z,76.92
2017-11-05T21:18:02.696Z,76.77
2017-11-05T21:20:29.814Z,76.58
2017-11-05T21:22:56.290Z,77.06
2017-11-05T21:25:22.725Z,77.08
2017-11-05T21:27:49.159Z,76.91
2017-11-05T21:30:15.470Z,76.93
2017-11-05T21:32:41.782Z,77.21
2017-11-05T21:35:08.260Z,77.00
2017-11-05T21:37:35.471Z,76.79
2017-11-05T21:40:01.948Z,76.67
2017-11-05T21:42:28.382Z,76.64
2017-11-05T21:44:54.809Z,76.69
2017-11-05T21:47:21.251Z,77.02
2017-11-05T21:49:47.687Z,77.07
2017-11-05T21:52:14.011Z,77.08
2017-11-05T21:54:41.264Z,77.08
2017-11-05T21:57:07.596Z,77.10
2017-11-05T21:59:33.966Z,76.93
2017-11-05T22:02:00.364Z,76.63
2017-11-05T22:04:26.909Z,76.49
2017-11-05T22:06:53.247Z,77.94
2017-11-05T22:09:19.668Z,78.74
2017-11-05T22:11:46.818Z,79.15
2017-11-05T22:14:13.263Z,79.45
2017-11-05T22:16:39.689Z,79.32
2017-11-05T22:19:06.132Z,78.54
2017-11-05T22:21:32.558Z,78.22
2017-11-05T22:23:58.992Z,78.52
2017-11-05T22:26:25.427Z,78.63
2017-11-05T22:28:52.690Z,77.88
2017-11-05T22:31:19.163Z,77.45
2017-11-05T22:33:45.632Z,77.83
2017-11-05T22:36:12.076Z,78.00
2017-11-05T22:38:38.521Z,78.38
2017-11-05T22:41:04.967Z,78.04
2017-11-05T22:43:31.390Z,77.71
2017-11-05T22:45:58.553Z,77.69
2017-11-05T22:48:24.933Z,78.14
2017-11-05T22:50:51.375Z,78.96
2017-11-05T22:53:17.855Z,78.33
2017-11-05T22:55:44.213Z,78.07
2017-11-05T22:58:10.578Z,77.87
2017-11-05T23:00:37.047Z,77.58
2017-11-05T23:03:04.186Z,78.26
2017-11-05T23:05:30.652Z,79.02
2017-11-05T23:07:57.069Z,79.18
2017-11-05T23:10:23.402Z,79.00
2017-11-05T23:12:49.774Z,78.59
2017-11-05T23:15:16.278Z,78.13
2017-11-05T23:17:42.706Z,78.51
2017-11-05T23:20:09.864Z,79.75
2017-11-05T23:22:36.300Z,80.16
2017-11-05T23:25:02.740Z,80.33
2017-11-05T23:27:29.160Z,80.18
2017-11-05T23:29:55.599Z,80.01
2017-11-05T23:32:22.039Z,79.70
2017-11-05T23:34:48.473Z,79.58
2017-11-05T23:37:15.646Z,79.54
2017-11-05T23:39:42.163Z,79.82
2017-11-05T23:42:08.588Z,79.89
2017-11-05T23:44:35.031Z,79.44
2017-11-05T23:47:01.443Z,79.18
2017-11-05T23:49:27.892Z,79.14
2017-11-05T23:51:54.335Z,79.03
2017-11-05T23:54:21.595Z,79.03
2017-11-05T23:56:47.986Z,79.12
2017-11-05T23:59:14.428Z,78.92
